Time;durP1;ratioP1;P1;durP2;ratioP2;P2;SDS_P1;SDS_P2;PMS_P1;PMS_P2;Temp;Humidity;BMP_temperature;BMP_pressure;BME280_temperature;BME280_humidity;BME280_pressure;Samples;Min_cycle;Max_cycle;Signal;HPM_P1;HPM_P2
2022/09/04 00:00:17;;;;;;;15.97;13.03;;;;;;;17.87;75.35;101194.84;5042312;28;20029;-85
2022/09/04 00:03:06;;;;;;;14.50;12.83;;;;;;;17.75;76.11;101197.69;5041049;28;20843;-85
2022/09/04 00:05:47;;;;;;;17.07;13.17;;;;;;;17.72;76.13;101203.69;5042131;28;20040;-85
2022/09/04 00:08:40;;;;;;;17.40;13.70;;;;;;;17.67;76.57;101193.44;5042288;28;20129;-85
2022/09/04 00:11:43;;;;;;;15.93;13.37;;;;;;;17.65;76.76;101203.00;5040435;28;20040;-85
2022/09/04 00:15:00;;;;;;;18.07;13.90;;;;;;;17.71;76.11;101211.06;5042373;28;20484;-85
2022/09/04 00:17:34;;;;;;;15.50;13.03;;;;;;;17.54;77.39;101210.22;5015367;28;20130;-85
2022/09/04 00:20:29;;;;;;;19.02;14.38;;;;;;;17.56;76.60;101202.59;5042155;28;20029;-85
2022/09/04 00:23:11;;;;;;;17.00;13.30;;;;;;;17.38;77.41;101214.66;5042275;28;20049;-85
2022/09/04 00:25:56;;;;;;;16.70;14.10;;;;;;;17.35;77.64;101212.38;5024382;28;20182;-85
2022/09/04 00:28:30;;;;;;;18.33;13.23;;;;;;;17.19;78.91;101216.81;5042084;28;20025;-84
2022/09/04 00:31:04;;;;;;;17.02;13.80;;;;;;;17.29;78.42;101219.69;5041961;28;20028;-85
2022/09/04 00:33:43;;;;;;;14.90;13.27;;;;;;;17.08;78.41;101214.94;5024487;28;20107;-84
2022/09/04 00:36:10;;;;;;;18.73;14.30;;;;;;;16.94;80.00;101223.44;5022652;28;20071;-85
2022/09/04 00:38:57;;;;;;;19.43;13.87;;;;;;;16.93;79.70;101223.69;5041915;28;20036;-85
2022/09/04 00:41:33;;;;;;;17.37;14.17;;;;;;;16.74;80.29;101225.78;5040932;28;20377;-85
2022/09/04 00:44:11;;;;;;;16.73;14.40;;;;;;;16.61;81.24;101230.47;5041297;28;20040;-85
2022/09/04 00:46:42;;;;;;;18.73;13.60;;;;;;;16.53;80.77;101226.19;5040983;28;20043;-84
2022/09/04 00:49:43;;;;;;;16.90;14.10;;;;;;;16.67;80.57;101224.03;5042054;28;20041;-84
2022/09/04 00:53:01;;;;;;;19.80;15.00;;;;;;;16.54;81.26;101232.50;5040474;28;20171;-84
2022/09/04 00:55:39;;;;;;;18.20;13.97;;;;;;;16.46;82.17;101227.41;5042018;28;20588;-85
2022/09/04 00:58:51;;;;;;;18.10;14.33;;;;;;;16.47;81.05;101226.31;5041435;28;20040;-84
2022/09/04 01:01:27;;;;;;;18.67;13.73;;;;;;;16.41;82.07;101230.88;4962364;28;20073;-85
2022/09/04 01:04:01;;;;;;;18.20;14.60;;;;;;;16.42;83.07;101229.78;4959479;28;20039;-84
2022/09/04 01:06:45;;;;;;;19.80;14.80;;;;;;;16.42;83.41;101239.91;5000380;28;20045;-85
2022/09/04 01:09:41;;;;;;;18.48;14.55;;;;;;;16.35;83.44;101242.78;5041753;28;20062;-85
2022/09/04 01:12:21;;;;;;;20.63;14.10;;;;;;;16.27;83.34;101243.97;5039413;28;20045;-85
2022/09/04 01:15:14;;;;;;;17.77;15.10;;;;;;;16.34;83.51;101244.66;5040253;28;20201;-85
2022/09/04 01:17:40;;;;;;;20.03;15.90;;;;;;;16.23;84.58;101250.19;5041188;28;20611;-85
2022/09/04 01:20:16;;;;;;;19.67;15.23;;;;;;;16.18;85.06;101245.41;5040566;28;20120;-85
2022/09/04 01:26:16;;;;;;;18.47;14.67;;;;;;;16.14;84.95;101261.47;5040276;28;20130;-85
2022/09/04 01:28:49;;;;;;;18.70;15.70;;;;;;;16.22;85.76;101256.72;5040994;28;20033;-85
2022/09/04 01:31:40;;;;;;;17.92;13.70;;;;;;;16.18;83.81;101257.19;5026530;28;20040;-85
2022/09/04 01:34:08;;;;;;;17.37;14.03;;;;;;;16.08;85.20;101248.75;5040241;28;20086;-85
2022/09/04 01:36:54;;;;;;;17.53;15.07;;;;;;;16.13;85.18;101264.44;5040198;28;20477;-85
2022/09/04 01:39:24;;;;;;;18.20;15.23;;;;;;;16.16;86.33;101266.69;5041484;28;20037;-85
2022/09/04 01:42:13;;;;;;;19.87;15.67;;;;;;;16.19;86.07;101269.78;5040612;28;20648;-85
2022/09/04 01:44:38;;;;;;;18.87;14.33;;;;;;;16.13;85.06;101272.63;5043785;28;20524;-85
2022/09/04 01:47:34;;;;;;;17.97;14.20;;;;;;;16.10;84.40;101270.38;5026568;28;20044;-84
2022/09/04 01:50:23;;;;;;;17.80;14.97;;;;;;;16.13;85.62;101280.81;5045103;28;20707;-85
2022/09/04 01:53:05;;;;;;;18.87;15.03;;;;;;;16.11;85.75;101272.88;5044716;28;20037;-85
2022/09/04 01:55:36;;;;;;;18.03;15.03;;;;;;;16.12;86.78;101269.06;5044451;28;20213;-85
2022/09/04 01:58:17;;;;;;;17.60;14.83;;;;;;;15.99;85.80;101275.63;5045020;28;20436;-85
2022/09/04 02:01:14;;;;;;;18.83;14.27;;;;;;;15.94;85.99;101272.75;5044676;28;20036;-85
2022/09/04 02:03:49;;;;;;;16.90;13.97;;;;;;;15.79;85.44;101280.53;5044594;28;20462;-84
2022/09/04 02:06:32;;;;;;;18.00;14.83;;;;;;;15.81;86.38;101283.91;5044727;28;20045;-84
2022/09/04 02:09:10;;;;;;;18.23;14.30;;;;;;;15.78;86.29;101287.09;5025656;28;20033;-85
2022/09/04 02:11:39;;;;;;;18.73;15.07;;;;;;;15.74;86.59;101294.94;5043989;28;20557;-85
2022/09/04 02:14:19;;;;;;;18.07;14.80;;;;;;;15.67;87.04;101299.69;5044257;28;20041;-84
2022/09/04 02:17:02;;;;;;;19.97;14.37;;;;;;;15.73;87.31;101306.09;5044772;28;20384;-84
2022/09/04 02:19:53;;;;;;;18.70;14.40;;;;;;;15.74;87.24;101305.03;5044679;28;20696;-84
2022/09/04 02:22:18;;;;;;;19.03;15.30;;;;;;;15.72;87.99;101307.16;5043797;28;20094;-85
2022/09/04 02:24:49;;;;;;;19.43;16.20;;;;;;;15.74;88.67;101307.75;5026355;28;20484;-85
2022/09/04 02:27:52;;;;;;;19.37;16.33;;;;;;;15.78;88.93;101312.50;5043409;28;20040;-85
2022/09/04 02:30:19;;;;;;;19.83;16.40;;;;;;;15.80;89.21;101304.09;5044323;28;20674;-84
2022/09/04 02:33:19;;;;;;;21.83;17.23;;;;;;;15.81;89.57;101313.97;5043951;28;20755;-84
2022/09/04 02:35:52;;;;;;;19.93;16.40;;;;;;;15.82;90.05;101316.47;5002021;28;20071;-84
2022/09/04 02:38:43;;;;;;;18.87;16.20;;;;;;;15.83;91.10;101317.31;5000988;28;20126;-85
2022/09/04 02:41:25;;;;;;;20.80;16.80;;;;;;;15.88;91.85;101320.16;5000630;28;20520;-84
2022/09/04 02:44:27;;;;;;;20.57;16.50;;;;;;;15.89;91.49;101313.63;5000808;28;20034;-84
2022/09/04 02:47:04;;;;;;;19.57;15.67;;;;;;;15.91;92.27;101311.50;5001815;28;20045;-84
2022/09/04 02:50:00;;;;;;;20.20;16.23;;;;;;;15.93;92.83;101320.28;5001512;28;20037;-81
2022/09/04 02:52:39;;;;;;;19.47;15.70;;;;;;;15.88;92.06;101322.06;5000207;28;20073;-84
2022/09/04 02:55:20;;;;;;;20.23;15.97;;;;;;;15.91;92.00;101327.91;5000357;28;20223;-84
2022/09/04 02:58:00;;;;;;;19.73;16.20;;;;;;;15.87;92.45;101329.44;5000819;28;20045;-85
2022/09/04 03:00:42;;;;;;;18.03;16.13;;;;;;;15.86;92.67;101327.78;5001135;28;20052;-84
2022/09/04 03:03:20;;;;;;;19.47;15.87;;;;;;;15.87;93.21;101334.91;5000665;28;20041;-84
2022/09/04 03:06:04;;;;;;;18.97;15.97;;;;;;;15.90;93.70;101339.88;5008297;28;20506;-85
2022/09/04 03:08:38;;;;;;;;;;;;;;;15.95;92.33;101334.56;5043729;28;20036;-83
2022/09/04 03:11:07;;;;;;;19.43;15.47;;;;;;;15.89;95.91;101335.50;5044012;28;20012;-84
2022/09/04 03:13:45;;;;;;;20.33;16.87;;;;;;;15.91;96.54;101332.50;5043245;28;20044;-84
2022/09/04 03:16:40;;;;;;;20.00;15.90;;;;;;;15.92;96.12;101340.47;5042551;28;20450;-85
2022/09/04 03:19:14;;;;;;;21.17;16.20;;;;;;;15.96;97.10;101335.38;5042952;28;20507;-83
2022/09/04 03:21:54;;;;;;;19.47;15.90;;;;;;;15.93;97.12;101336.69;5043344;28;20029;-84
2022/09/04 03:24:28;;;;;;;20.57;16.27;;;;;;;15.95;97.48;101345.50;5042532;28;20052;-85
2022/09/04 03:27:13;;;;;;;22.45;15.98;;;;;;;15.96;97.25;101347.13;5043957;28;20045;-83
2022/09/04 03:29:53;;;;;;;21.07;16.57;;;;;;;15.94;97.65;101346.56;5043628;28;20071;-84
2022/09/04 03:32:26;;;;;;;20.40;16.23;;;;;;;15.94;97.49;101343.81;5044281;28;21444;-84
2022/09/04 03:35:20;;;;;;;22.33;16.40;;;;;;;15.94;97.39;101342.97;5043288;28;20048;-84
2022/09/04 03:37:51;;;;;;;21.80;16.40;;;;;;;15.92;97.78;101343.19;5042727;28;20036;-83
2022/09/04 03:40:43;;;;;;;23.90;17.23;;;;;;;15.93;97.94;101342.16;5043373;28;20051;-84
2022/09/04 03:43:37;;;;;;;22.13;16.67;;;;;;;15.94;97.92;101352.03;5043085;28;20025;-84
2022/09/04 03:46:20;;;;;;;23.33;16.30;;;;;;;15.93;97.51;101355.81;5043929;28;20040;-83
2022/09/04 03:49:08;;;;;;;22.93;17.17;;;;;;;15.88;98.16;101350.22;5043416;28;20028;-84
2022/09/04 03:52:08;;;;;;;21.20;16.77;;;;;;;15.90;98.35;101353.56;5042635;28;20032;-84
2022/09/04 03:54:42;;;;;;;23.27;17.90;;;;;;;15.87;98.02;101356.75;5041511;28;20028;-85
2022/09/04 03:57:39;;;;;;;22.08;18.00;;;;;;;15.88;98.09;101366.59;5042501;28;20056;-84
2022/09/04 04:00:17;;;;;;;22.90;17.47;;;;;;;15.82;98.01;101357.44;5041951;28;20389;-84
2022/09/04 04:02:48;;;;;;;21.83;17.37;;;;;;;15.85;98.10;101361.63;5042548;28;20036;-84
2022/09/04 04:05:20;;;;;;;21.53;18.00;;;;;;;15.81;98.54;101357.69;5041812;28;20033;-84
2022/09/04 04:08:31;;;;;;;23.30;18.60;;;;;;;15.84;98.38;101360.78;5027813;28;20097;-84
2022/09/04 04:11:03;;;;;;;21.40;17.47;;;;;;;15.84;98.56;101357.22;5022224;28;20052;-84
2022/09/04 04:13:30;;;;;;;21.43;17.67;;;;;;;15.78;98.83;101360.88;5042386;28;20485;-84
2022/09/04 04:16:29;;;;;;;21.53;17.83;;;;;;;15.80;98.68;101372.41;5042408;28;20105;-84
2022/09/04 04:19:09;;;;;;;22.67;17.97;;;;;;;15.75;98.98;101373.09;5017092;28;20037;-85
2022/09/04 04:21:54;;;;;;;21.27;17.33;;;;;;;15.77;99.32;101375.59;5042889;28;20397;-83
2022/09/04 04:24:38;;;;;;;22.57;17.67;;;;;;;15.74;99.84;101373.34;5041905;28;20088;-84
2022/09/04 04:27:09;;;;;;;20.65;16.83;;;;;;;15.74;99.37;101378.78;5041508;28;20040;-84
2022/09/04 04:30:06;;;;;;;23.40;16.70;;;;;;;15.73;99.69;101380.69;5041950;28;20526;-84
2022/09/04 04:32:56;;;;;;;21.47;16.77;;;;;;;15.69;99.75;101380.31;5041656;28;20044;-85
2022/09/04 04:35:53;;;;;;;20.87;17.17;;;;;;;15.67;99.59;101385.19;5041170;28;20376;-84
2022/09/04 04:38:46;;;;;;;21.13;17.13;;;;;;;15.67;99.08;101390.63;5040876;28;20456;-84
2022/09/04 04:41:20;;;;;;;20.43;16.93;;;;;;;15.64;99.41;101391.13;5042061;28;20032;-85
2022/09/04 04:44:14;;;;;;;21.88;17.15;;;;;;;15.65;99.87;101400.97;5024056;28;20068;-84
2022/09/04 04:47:01;;;;;;;22.40;17.60;;;;;;;15.64;99.96;101398.44;5042247;28;20090;-84
2022/09/04 04:49:50;;;;;;;21.27;18.40;;;;;;;15.60;100.00;101397.25;5041532;28;20083;-84
2022/09/04 04:52:54;;;;;;;21.50;17.27;;;;;;;15.59;100.00;101404.63;5027582;28;20546;-86
2022/09/04 04:55:40;;;;;;;21.73;17.83;;;;;;;15.60;100.00;101402.72;5038275;28;20056;-83
2022/09/04 04:58:10;;;;;;;22.30;17.97;;;;;;;15.56;100.00;101404.25;5041239;28;20568;-84
2022/09/04 05:00:50;;;;;;;22.83;18.83;;;;;;;15.52;100.00;101412.91;5041986;28;20033;-84
2022/09/04 05:03:52;;;;;;;23.33;19.17;;;;;;;15.52;100.00;101404.72;5041818;28;20040;-84
2022/09/04 05:06:36;;;;;;;22.93;18.47;;;;;;;15.51;100.00;101415.88;5041135;28;20414;-84
2022/09/04 05:09:33;;;;;;;21.73;18.38;;;;;;;15.49;100.00;101415.25;5041084;28;20051;-84
2022/09/04 05:12:12;;;;;;;23.60;18.87;;;;;;;15.48;100.00;101413.63;5041693;28;20084;-84
2022/09/04 05:14:37;;;;;;;22.60;19.10;;;;;;;15.46;100.00;101418.47;5041158;28;20040;-83
2022/09/04 05:17:40;;;;;;;21.97;18.27;;;;;;;15.49;100.00;101420.72;5040770;28;20492;-84
2022/09/04 05:20:27;;;;;;;21.70;17.77;;;;;;;15.50;100.00;101425.13;5039977;28;20067;-85
2022/09/04 05:23:14;;;;;;;23.33;17.03;;;;;;;15.49;100.00;101424.31;5040500;28;21360;-84
2022/09/04 05:25:45;;;;;;;21.33;17.57;;;;;;;15.50;100.00;101431.44;5040785;28;21550;-84
2022/09/04 05:28:43;;;;;;;23.20;18.20;;;;;;;15.49;100.00;101437.97;5040807;28;20484;-85
2022/09/04 05:31:28;;;;;;;21.33;17.67;;;;;;;15.54;100.00;101429.06;5026613;28;20571;-83
2022/09/04 05:34:08;;;;;;;21.23;18.13;;;;;;;15.56;100.00;101440.59;5023006;28;20045;-83
2022/09/04 05:36:52;;;;;;;21.87;18.13;;;;;;;15.55;100.00;101449.84;5040466;28;20039;-84
2022/09/04 05:40:01;;;;;;;22.52;18.60;;;;;;;15.57;100.00;101455.94;5040828;28;20025;-84
2022/09/04 05:42:32;;;;;;;22.13;18.83;;;;;;;15.58;100.00;101457.56;5040641;28;20927;-84
2022/09/04 05:45:14;;;;;;;26.37;18.77;;;;;;;15.59;100.00;101459.25;5039348;28;20029;-84
2022/09/04 05:47:45;;;;;;;21.67;18.97;;;;;;;15.63;100.00;101468.66;5040187;28;20029;-84
2022/09/04 05:50:44;;;;;;;21.63;18.27;;;;;;;15.62;100.00;101453.31;5038727;28;20049;-83
2022/09/04 05:53:32;;;;;;;22.90;19.60;;;;;;;15.70;100.00;101469.38;5022644;28;20115;-84
2022/09/04 05:56:17;;;;;;;23.23;19.10;;;;;;;15.73;100.00;101475.47;5040312;28;20461;-85
2022/09/04 05:59:10;;;;;;;23.37;19.03;;;;;;;15.80;100.00;101487.16;5041168;28;20033;-84
2022/09/04 06:01:58;;;;;;;21.23;18.00;;;;;;;15.82;100.00;101479.59;5039896;28;20040;-83
2022/09/04 06:04:41;;;;;;;21.17;18.53;;;;;;;15.91;100.00;101489.13;5040535;28;20415;-85
2022/09/04 06:07:40;;;;;;;22.67;18.50;;;;;;;15.91;100.00;101486.41;5040935;28;20086;-84
2022/09/04 06:10:43;;;;;;;21.90;18.00;;;;;;;16.02;100.00;101493.78;5022001;28;20550;-84
2022/09/04 06:13:20;;;;;;;20.50;17.33;;;;;;;16.05;100.00;101487.03;5040915;28;20127;-84
2022/09/04 06:16:06;;;;;;;20.60;17.23;;;;;;;16.15;100.00;101497.41;5040087;28;20075;-84
2022/09/04 06:18:38;;;;;;;21.17;18.20;;;;;;;16.20;100.00;101492.06;5039208;28;20133;-86
2022/09/04 06:21:35;;;;;;;23.10;18.13;;;;;;;16.28;100.00;101489.00;5039517;28;20515;-84
2022/09/04 06:24:28;;;;;;;22.97;18.83;;;;;;;16.35;100.00;101495.19;5039521;28;20064;-84
2022/09/04 06:27:20;;;;;;;23.37;18.33;;;;;;;16.44;100.00;101495.69;5039565;28;20443;-85
2022/09/04 06:30:08;;;;;;;22.17;17.93;;;;;;;16.51;100.00;101492.84;5039226;28;20041;-83
2022/09/04 06:32:55;;;;;;;21.57;17.77;;;;;;;16.66;100.00;101504.16;5043963;28;20033;-84
2022/09/04 06:35:54;;;;;;;20.77;17.40;;;;;;;16.75;99.27;101509.28;5043231;28;20044;-82
2022/09/04 06:38:50;;;;;;;22.07;17.43;;;;;;;16.85;99.10;101507.63;5042868;28;21332;-85
2022/09/04 06:41:34;;;;;;;21.60;17.13;;;;;;;16.95;97.69;101512.53;5030616;28;20036;-84
2022/09/04 06:44:05;;;;;;;20.67;16.25;;;;;;;17.11;97.73;101515.59;5041152;28;20044;-85
2022/09/04 06:46:44;;;;;;;19.80;16.53;;;;;;;17.22;97.25;101512.03;5043896;28;20036;-84
2022/09/04 06:49:47;;;;;;;21.60;16.47;;;;;;;17.36;96.41;101518.91;5042914;28;20683;-85
2022/09/04 06:52:37;;;;;;;20.03;15.90;;;;;;;17.54;95.99;101530.78;5025126;28;20056;-84
2022/09/04 06:55:12;;;;;;;18.80;15.73;;;;;;;17.72;95.75;101521.56;5041831;28;20028;-85
2022/09/04 06:57:59;;;;;;;19.30;15.03;;;;;;;17.80;94.43;101512.97;5043113;28;20120;-84
2022/09/04 07:00:30;;;;;;;20.87;15.50;;;;;;;17.88;93.76;101512.56;5043976;28;20037;-84
2022/09/04 07:03:13;;;;;;;20.37;15.90;;;;;;;18.01;93.37;101514.22;5043883;28;20111;-84
2022/09/04 07:05:57;;;;;;;19.10;14.83;;;;;;;18.16;92.64;101518.31;5041905;28;20111;-84
2022/09/04 07:08:54;;;;;;;20.27;15.32;;;;;;;18.31;92.34;101518.59;5042100;28;20048;-85
2022/09/04 07:11:44;;;;;;;18.80;15.10;;;;;;;18.48;91.55;101529.59;5042621;28;20041;-84
2022/09/04 07:14:34;;;;;;;18.93;15.30;;;;;;;18.66;90.91;101520.28;5043110;28;20052;-84
2022/09/04 07:17:02;;;;;;;18.43;14.70;;;;;;;18.67;88.81;101526.59;5043158;28;20515;-85
2022/09/04 07:19:28;;;;;;;18.03;14.63;;;;;;;18.87;89.30;101531.56;5043629;28;20484;-85
2022/09/04 07:22:16;;;;;;;18.13;14.17;;;;;;;18.95;88.51;101542.16;5042998;28;20044;-84
2022/09/04 07:25:16;;;;;;;18.07;14.30;;;;;;;19.05;88.23;101539.59;5061912;28;20215;-84
2022/09/04 07:27:54;;;;;;;20.03;14.97;;;;;;;19.05;87.24;101541.47;5062862;28;20756;-82
2022/09/04 07:30:24;;;;;;;18.23;14.23;;;;;;;19.16;86.77;101539.72;5062694;28;20638;-85
2022/09/04 07:32:54;;;;;;;18.67;14.13;;;;;;;19.26;86.48;101545.38;5062584;28;20047;-83
2022/09/04 07:35:35;;;;;;;17.92;13.70;;;;;;;19.31;85.74;101542.69;5062729;28;20120;-85
2022/09/04 07:38:25;;;;;;;18.43;14.13;;;;;;;19.48;85.75;101542.63;5061582;28;20451;-85
2022/09/04 07:40:59;;;;;;;18.00;13.68;;;;;;;19.60;84.74;101542.53;5060475;28;20020;-83
2022/09/04 07:43:33;;;;;;;;;;;;;;;19.77;84.25;101549.88;5063681;28;20536;-84
2022/09/04 07:46:15;;;;;;;17.30;13.55;;;;;;;19.88;83.66;101552.50;5062993;28;19920;-85
2022/09/04 07:48:52;;;;;;;19.88;14.77;;;;;;;19.99;82.88;101552.63;5063861;28;20039;-83
2022/09/04 07:51:36;;;;;;;17.73;13.55;;;;;;;20.21;82.35;101561.66;5060325;28;20032;-84
2022/09/04 07:54:28;;;;;;;18.05;13.52;;;;;;;20.41;81.68;101554.69;5062094;28;20190;-84
2022/09/04 07:57:26;;;;;;;18.13;13.65;;;;;;;20.75;80.79;101559.97;5062052;28;20082;-85
2022/09/04 08:00:03;;;;;;;17.13;13.73;;;;;;;20.85;78.72;101575.78;5062209;28;20048;-85
2022/09/04 08:02:55;;;;;;;17.88;13.57;;;;;;;21.15;78.73;101579.84;5062628;28;21641;-86
2022/09/04 08:05:32;;;;;;;16.35;12.77;;;;;;;21.19;77.16;101572.72;5061663;28;20036;-83
2022/09/04 08:08:18;;;;;;;16.92;13.27;;;;;;;21.33;75.98;101582.16;5062430;28;20044;-85
2022/09/04 08:10:46;;;;;;;16.02;12.50;;;;;;;21.65;75.25;101584.00;5061593;28;20829;-87
2022/09/04 08:13:32;;;;;;;17.27;13.32;;;;;;;21.91;76.28;101581.38;5061613;28;20048;-86
2022/09/04 08:16:19;;;;;;;18.27;14.27;;;;;;;21.95;74.24;101590.75;5060648;28;20122;-84
2022/09/04 08:18:53;;;;;;;16.77;13.55;;;;;;;21.99;73.76;101582.75;5061041;28;20033;-84
2022/09/04 08:21:52;;;;;;;15.82;13.38;;;;;;;22.16;73.16;101588.06;5061502;28;20028;-85
2022/09/04 08:24:36;;;;;;;17.98;13.52;;;;;;;22.36;73.26;101585.38;5061416;28;21641;-86
2022/09/04 08:30:23;;;;;;;15.48;12.35;;;;;;;22.68;70.35;101589.81;5061349;28;20055;-86
2022/09/04 08:33:16;;;;;;;15.57;12.00;;;;;;;22.94;71.48;101587.03;5061073;28;20036;-85
2022/09/04 08:36:07;;;;;;;15.35;11.90;;;;;;;22.98;69.81;101588.13;5060738;28;20537;-85
2022/09/04 08:38:54;;;;;;;15.13;12.35;;;;;;;23.34;69.00;101596.41;5044302;28;20044;-86
2022/09/04 08:41:59;;;;;;;14.07;10.90;;;;;;;23.70;69.21;101593.53;5059942;28;20064;-86
2022/09/04 08:44:46;;;;;;;14.75;11.20;;;;;;;23.75;66.03;101599.03;5060685;28;20462;-85
2022/09/04 08:47:39;;;;;;;13.63;10.70;;;;;;;23.83;65.41;101605.13;5060760;28;20063;-86
2022/09/04 08:50:22;;;;;;;16.10;10.75;;;;;;;24.09;65.78;101612.19;5061078;28;20086;-84
2022/09/04 08:53:13;;;;;;;13.55;11.63;;;;;;;24.26;64.87;101611.00;5060499;28;20085;-86
2022/09/04 08:56:05;;;;;;;15.43;11.13;;;;;;;24.53;64.16;101606.97;5060513;28;20036;-86
2022/09/04 08:58:42;;;;;;;13.88;10.68;;;;;;;24.64;62.51;101605.78;5060467;28;20043;-86
2022/09/04 09:01:32;;;;;;;16.75;11.65;;;;;;;24.78;62.34;101615.09;5059423;28;20130;-86
2022/09/04 09:04:30;;;;;;;16.48;11.65;;;;;;;24.93;62.22;101614.16;5060965;28;20070;-85
2022/09/04 09:07:05;;;;;;;16.83;11.00;;;;;;;25.17;61.07;101612.53;5059783;28;20054;-86
2022/09/04 09:09:36;;;;;;;13.60;10.02;;;;;;;25.23;59.37;101617.75;5060581;28;20032;-87
2022/09/04 09:12:30;;;;;;;16.48;10.48;;;;;;;25.28;60.06;101620.47;5061008;28;20122;-87
2022/09/04 09:15:22;;;;;;;13.38;9.98;;;;;;;25.58;59.90;101617.69;5043341;28;21032;-86
2022/09/04 09:18:00;;;;;;;13.52;9.93;;;;;;;25.58;58.96;101617.69;5061337;28;20040;-85
2022/09/04 09:20:29;;;;;;;14.38;9.48;;;;;;;25.66;58.08;101624.53;5060417;28;20057;-87
2022/09/04 09:23:47;;;;;;;13.00;9.57;;;;;;;25.92;58.59;101617.56;5042667;28;20105;-87
2022/09/04 09:26:22;;;;;;;15.90;10.38;;;;;;;26.07;57.52;101619.34;5060890;28;20044;-86
2022/09/04 09:29:12;;;;;;;13.80;10.50;;;;;;;26.23;57.49;101611.63;5060285;28;20036;-87
2022/09/04 09:31:49;;;;;;;14.45;10.45;;;;;;;26.26;56.13;101612.94;5060054;28;20134;-86
2022/09/04 09:34:53;;;;;;;13.35;10.13;;;;;;;26.59;56.94;101610.25;5061594;28;20388;-86
2022/09/04 09:37:43;;;;;;;14.23;9.02;;;;;;;26.90;56.32;101610.59;5045339;28;20041;-86
2022/09/04 09:40:14;;;;;;;16.05;8.73;;;;;;;26.83;53.95;101612.94;5058766;28;20094;-85
2022/09/04 09:42:59;;;;;;;12.10;8.38;;;;;;;26.86;54.28;101617.06;5060965;28;20033;-86
2022/09/04 09:45:43;;;;;;;11.80;7.70;;;;;;;26.89;54.83;101616.47;5057941;28;20796;-86
2022/09/04 09:48:11;;;;;;;12.52;8.05;;;;;;;26.82;53.85;101616.84;5045287;28;20081;-86
2022/09/04 09:51:01;;;;;;;13.07;8.80;;;;;;;27.16;54.34;101617.66;5059882;28;20094;-87
2022/09/04 09:53:35;;;;;;;11.35;8.35;;;;;;;27.17;53.88;101611.78;5060936;28;20067;-86
2022/09/04 09:56:36;;;;;;;10.82;7.65;;;;;;;27.58;53.94;101615.75;5060086;28;21106;-85
2022/09/04 09:59:39;;;;;;;10.65;7.28;;;;;;;27.62;52.29;101616.78;5059045;28;20036;-86
2022/09/04 10:02:16;;;;;;;9.80;6.40;;;;;;;27.60;50.33;101610.72;5058871;28;20045;-84
2022/09/04 10:05:09;;;;;;;9.68;6.22;;;;;;;27.67;49.73;101608.34;5061928;28;20032;-86
2022/09/04 10:08:21;;;;;;;7.28;6.05;;;;;;;27.45;51.84;101614.63;5061541;28;20463;-86
2022/09/04 10:11:16;;;;;;;7.35;5.53;;;;;;;27.64;49.30;101611.75;5064584;28;20025;-88
2022/09/04 10:13:44;;;;;;;8.10;5.40;;;;;;;27.67;49.33;101607.53;5064702;28;20126;-87
2022/09/04 10:16:41;;;;;;;5.45;4.72;;;;;;;28.14;49.72;101605.44;5063681;28;20044;-88
2022/09/04 10:19:35;;;;;;;5.57;3.50;;;;;;;27.99;47.11;101603.78;5062329;28;20476;-86
2022/09/04 10:22:19;;;;;;;;;;;;;;;28.30;47.99;101611.47;5064170;28;20028;-85
2022/09/04 10:24:48;;;;;;;2.92;2.45;;;;;;;27.68;46.98;101606.41;5046628;28;20880;-86
2022/09/04 10:27:46;;;;;;;4.75;2.97;;;;;;;27.82;47.50;101614.75;5063120;28;20115;-87
2022/09/04 10:30:19;;;;;;;3.85;2.90;;;;;;;27.68;47.62;101604.44;5063965;28;20028;-86
2022/09/04 10:32:53;;;;;;;3.90;3.20;;;;;;;27.67;47.40;101613.91;5064297;28;20043;-88
2022/09/04 10:35:29;;;;;;;5.45;3.38;;;;;;;27.53;48.74;101601.97;5063969;28;20029;-86
2022/09/04 10:38:04;;;;;;;5.43;2.90;;;;;;;27.44;48.02;101605.47;5063872;28;20054;-88
2022/09/04 10:40:47;;;;;;;5.70;2.90;;;;;;;27.90;46.69;101605.66;5062613;28;20893;-87
2022/09/04 10:43:29;;;;;;;3.75;2.70;;;;;;;28.00;47.92;101610.16;5059918;28;20089;-86
2022/09/04 10:46:25;;;;;;;3.80;2.97;;;;;;;27.78;46.48;101614.53;5062216;28;20075;-87
2022/09/04 10:49:10;;;;;;;7.57;2.90;;;;;;;27.97;46.95;101611.63;5061131;28;20511;-85
2022/09/04 10:51:58;;;;;;;2.63;2.42;;;;;;;28.00;46.26;101611.00;5060154;28;20402;-86
2022/09/04 10:54:46;;;;;;;5.95;2.80;;;;;;;27.81;46.15;101613.91;5060099;28;20090;-84
2022/09/04 10:57:30;;;;;;;6.13;3.00;;;;;;;27.22;47.00;101613.66;5058054;28;20032;-85
2022/09/04 11:00:12;;;;;;;4.68;3.50;;;;;;;27.08;48.28;101613.63;5060470;28;21329;-85
2022/09/04 11:02:40;;;;;;;4.63;3.00;;;;;;;27.53;47.37;101608.34;5060498;28;20046;-85
2022/09/04 11:05:24;;;;;;;6.07;3.10;;;;;;;27.33;47.63;101609.53;5059389;28;20123;-86
2022/09/04 11:08:15;;;;;;;;;;;;;;;27.66;47.48;101601.13;5061562;28;20035;-86
2022/09/04 11:10:53;;;;;;;5.43;3.42;;;;;;;27.52;47.47;101611.44;5056658;28;20428;-86
2022/09/04 11:13:48;;;;;;;2.38;1.95;;;;;;;27.46;42.70;101608.75;5059855;28;20198;-88
2022/09/04 11:16:37;;;;;;;3.20;2.30;;;;;;;27.58;44.51;101602.69;5057956;28;20028;-87
2022/09/04 11:19:19;;;;;;;2.85;2.30;;;;;;;27.22;45.26;101605.31;5051301;28;20051;-84
2022/09/04 11:22:33;;;;;;;2.63;2.35;;;;;;;27.20;45.36;101604.78;5059305;28;20115;-87
2022/09/04 11:25:37;;;;;;;4.13;2.15;;;;;;;27.49;44.61;101609.28;5060185;28;20053;-85
2022/09/04 11:28:39;;;;;;;2.80;2.38;;;;;;;27.50;44.37;101602.56;5060013;28;20060;-86
2022/09/04 11:31:24;;;;;;;2.00;1.88;;;;;;;27.36;43.22;101602.53;5040432;28;20480;-88
2022/09/04 11:34:06;;;;;;;3.63;2.40;;;;;;;27.23;44.09;101609.75;5059078;28;20042;-86
2022/09/04 11:36:38;;;;;;;3.08;2.10;;;;;;;26.92;44.58;101605.53;5059937;28;20037;-85
2022/09/04 11:39:35;;;;;;;3.90;2.30;;;;;;;27.06;45.53;101605.59;5059485;28;20044;-86
2022/09/04 11:42:40;;;;;;;2.58;2.20;;;;;;;26.96;44.76;101605.78;5060161;28;20083;-87
2022/09/04 11:45:40;;;;;;;2.15;2.05;;;;;;;27.00;44.70;101606.00;5059357;28;20032;-85
2022/09/04 11:48:41;;;;;;;2.58;2.25;;;;;;;26.99;43.94;101607.94;5059992;28;20547;-87
2022/09/04 11:51:31;;;;;;;4.75;2.50;;;;;;;27.06;44.02;101610.31;5024307;28;20550;-85
2022/09/04 11:54:05;;;;;;;4.13;2.40;;;;;;;26.99;44.18;101601.56;5045412;28;20048;-87
2022/09/04 11:57:13;;;;;;;2.42;2.22;;;;;;;27.18;45.07;101607.06;5059028;28;21519;-86
2022/09/04 12:00:06;;;;;;;3.35;2.25;;;;;;;27.27;43.30;101608.00;5058414;28;20048;-85
2022/09/04 12:03:06;;;;;;;2.67;2.47;;;;;;;27.16;43.37;101609.31;5058120;28;20146;-85
2022/09/04 12:05:53;;;;;;;2.40;2.20;;;;;;;27.23;42.96;101620.88;5059008;28;20032;-85
2022/09/04 12:08:44;;;;;;;3.10;2.35;;;;;;;27.20;42.92;101602.00;5057868;28;20777;-87
2022/09/04 12:11:59;;;;;;;4.57;2.50;;;;;;;27.11;44.18;101611.06;5058792;28;20041;-86
2022/09/04 12:14:38;;;;;;;2.53;2.33;;;;;;;26.93;43.64;101612.75;5031390;28;20048;-85
2022/09/04 12:17:27;;;;;;;4.47;2.33;;;;;;;27.01;43.26;101630.72;5058611;28;20055;-86
2022/09/04 12:20:03;;;;;;;4.15;2.50;;;;;;;27.13;39.59;101616.31;5059423;28;20028;-86
2022/09/04 12:22:53;;;;;;;3.50;2.60;;;;;;;27.18;39.86;101616.22;5056588;28;20133;-86
2022/09/04 12:25:37;;;;;;;4.60;2.60;;;;;;;27.33;39.04;101622.63;5039555;28;20036;-84
2022/09/04 12:28:28;;;;;;;4.30;2.95;;;;;;;27.51;38.59;101620.91;5037003;28;20396;-88
2022/09/04 12:31:25;;;;;;;4.05;2.67;;;;;;;27.27;39.03;101627.47;5021505;28;20048;-85
2022/09/04 12:34:19;;;;;;;4.80;2.75;;;;;;;27.14;40.77;101623.53;5036705;28;20039;-86
2022/09/04 12:36:51;;;;;;;4.78;2.58;;;;;;;26.97;40.92;101621.34;5039222;28;20029;-85
2022/09/04 12:39:28;;;;;;;4.90;2.60;;;;;;;26.88;41.17;101620.38;5038977;28;20033;-87